createdAt,value
2017-12-31T00:00:10.448Z,10.50
2017-12-31T00:02:37.926Z,10.50
2017-12-31T00:05:05.392Z,10.50
2017-12-31T00:07:33.623Z,10.50
2017-12-31T00:10:01.094Z,10.50
2017-12-31T00:12:28.579Z,10.50
2017-12-31T00:14:56.826Z,10.50
2017-12-31T00:17:24.298Z,10.50
2017-12-31T00:19:51.754Z,10.50
2017-12-31T00:22:19.230Z,10.50
2017-12-31T00:24:46.698Z,10.50
2017-12-31T00:27:14.935Z,10.40
2017-12-31T00:29:42.412Z,10.40
2017-12-31T00:32:09.866Z,10.40
2017-12-31T00:34:37.321Z,10.40
2017-12-31T00:37:04.793Z,10.30
2017-12-31T00:39:33.044Z,10.30
2017-12-31T00:42:00.507Z,10.30
2017-12-31T00:44:27.974Z,10.20
2017-12-31T00:46:56.402Z,10.20
2017-12-31T00:49:23.866Z,10.20
2017-12-31T00:51:51.338Z,10.20
2017-12-31T00:54:18.803Z,10.10
2017-12-31T00:56:46.274Z,10.20
2017-12-31T00:59:13.737Z,10.10
2017-12-31T01:01:41.970Z,10.20
2017-12-31T01:04:09.453Z,10.10
2017-12-31T01:06:36.899Z,10.10
2017-12-31T01:09:04.371Z,10.10
2017-12-31T01:11:31.833Z,10.00
2017-12-31T01:14:00.071Z,10.00
2017-12-31T01:16:27.530Z,10.00
2017-12-31T01:18:54.998Z,10.00
2017-12-31T01:21:22.477Z,10.00
2017-12-31T01:23:49.951Z,9.90
2017-12-31T01:26:18.188Z,9.90
2017-12-31T01:28:45.647Z,9.90
2017-12-31T01:31:13.119Z,9.90
2017-12-31T01:33:41.370Z,9.90
2017-12-31T01:36:08.837Z,9.90
2017-12-31T01:38:36.290Z,9.90
2017-12-31T01:41:03.758Z,9.90
2017-12-31T01:43:31.209Z,9.90
2017-12-31T01:45:58.678Z,9.90
2017-12-31T01:48:26.126Z,9.80
2017-12-31T01:50:53.616Z,9.80
2017-12-31T01:53:21.834Z,9.80
2017-12-31T01:55:49.281Z,9.80
2017-12-31T01:58:16.745Z,9.80
2017-12-31T02:00:44.201Z,9.80
2017-12-31T02:03:11.661Z,9.80
2017-12-31T02:05:39.125Z,9.80
2017-12-31T02:08:06.574Z,9.80
2017-12-31T02:10:34.035Z,9.70
2017-12-31T02:13:01.499Z,9.70
2017-12-31T02:15:28.957Z,9.70
2017-12-31T02:17:57.245Z,9.70
2017-12-31T02:20:24.720Z,9.60
2017-12-31T02:22:52.169Z,9.60
2017-12-31T02:25:19.621Z,9.60
2017-12-31T02:27:47.082Z,9.60
2017-12-31T02:30:14.537Z,9.60
2017-12-31T02:32:41.994Z,9.60
2017-12-31T02:35:09.466Z,9.60
2017-12-31T02:37:37.690Z,9.60
2017-12-31T02:40:05.153Z,9.60
2017-12-31T02:42:32.614Z,9.60
2017-12-31T02:45:00.079Z,9.60
2017-12-31T02:47:27.531Z,9.60
2017-12-31T02:49:54.985Z,9.50
2017-12-31T02:52:22.450Z,9.60
2017-12-31T02:54:49.902Z,9.50
2017-12-31T02:57:17.354Z,9.50
2017-12-31T02:59:44.833Z,9.50
2017-12-31T03:02:12.294Z,9.50
2017-12-31T03:04:39.746Z,9.50
2017-12-31T03:07:07.206Z,9.40
2017-12-31T03:09:34.758Z,9.40
2017-12-31T03:12:02.209Z,9.40
2017-12-31T03:14:29.693Z,9.40
2017-12-31T03:16:57.922Z,9.40
2017-12-31T03:19:25.370Z,9.40
2017-12-31T03:21:52.838Z,9.40
2017-12-31T03:24:20.296Z,9.40
2017-12-31T03:26:47.870Z,9.30
2017-12-31T03:29:15.335Z,9.30
2017-12-31T03:31:42.781Z,9.30
2017-12-31T03:34:10.253Z,9.30
2017-12-31T03:36:38.479Z,9.20
2017-12-31T03:39:05.975Z,9.20
2017-12-31T03:41:33.461Z,9.30
2017-12-31T03:44:01.724Z,9.30
2017-12-31T03:46:29.266Z,9.30
2017-12-31T03:48:56.882Z,9.30
2017-12-31T03:51:24.338Z,9.30
2017-12-31T03:53:51.811Z,9.30
2017-12-31T03:56:19.294Z,9.30
2017-12-31T03:58:46.755Z,9.40
2017-12-31T04:01:14.227Z,9.40
2017-12-31T04:03:42.442Z,9.40
2017-12-31T04:06:09.920Z,9.40
2017-12-31T04:08:37.394Z,9.50
2017-12-31T04:11:04.854Z,9.60
2017-12-31T04:13:32.321Z,9.70
2017-12-31T04:15:59.770Z,9.80
2017-12-31T04:18:28.742Z,10.10
2017-12-31T04:20:56.206Z,10.10
2017-12-31T04:23:23.658Z,10.20
2017-12-31T04:25:51.114Z,10.30
2017-12-31T04:28:18.575Z,10.40
2017-12-31T04:30:46.026Z,10.50
2017-12-31T04:33:13.511Z,10.50
2017-12-31T04:35:41.053Z,10.60
2017-12-31T04:38:08.515Z,10.70
2017-12-31T04:40:35.986Z,10.70
2017-12-31T04:43:03.449Z,10.80
2017-12-31T04:45:31.702Z,10.90
2017-12-31T04:47:59.170Z,10.90
2017-12-31T04:50:26.721Z,11.00
2017-12-31T04:52:54.165Z,11.00
2017-12-31T04:55:21.622Z,11.10
2017-12-31T04:57:49.194Z,11.10
2017-12-31T05:00:16.650Z,11.20
2017-12-31T05:02:44.109Z,11.20
2017-12-31T05:05:11.572Z,11.30
2017-12-31T05:07:39.799Z,11.30
2017-12-31T05:10:07.265Z,11.30
2017-12-31T05:12:34.721Z,11.30
2017-12-31T05:15:02.179Z,11.30
2017-12-31T05:17:29.641Z,11.30
2017-12-31T05:19:57.101Z,11.30
2017-12-31T05:22:24.567Z,11.40
2017-12-31T05:24:52.039Z,11.40
2017-12-31T05:27:19.494Z,11.40
2017-12-31T05:29:46.942Z,11.50
2017-12-31T05:32:14.415Z,11.50
2017-12-31T05:34:42.679Z,11.50
2017-12-31T05:37:10.246Z,11.50
2017-12-31T05:39:37.710Z,11.60
2017-12-31T05:42:05.926Z,11.60
2017-12-31T05:44:33.399Z,11.60
2017-12-31T05:47:00.866Z,11.60
2017-12-31T05:49:28.327Z,11.60
2017-12-31T05:51:55.814Z,11.60
2017-12-31T05:54:24.078Z,11.60
2017-12-31T05:56:51.531Z,11.60
2017-12-31T05:59:20.497Z,11.60
2017-12-31T06:01:47.967Z,11.60
2017-12-31T06:04:15.562Z,11.60
2017-12-31T06:06:43.794Z,11.60
2017-12-31T06:09:11.266Z,11.60
2017-12-31T06:11:38.713Z,11.60
2017-12-31T06:14:06.187Z,11.60
2017-12-31T06:16:33.642Z,11.60
2017-12-31T06:19:01.098Z,11.60
2017-12-31T06:21:28.562Z,11.50
2017-12-31T06:23:56.809Z,11.50
2017-12-31T06:26:24.261Z,11.50
2017-12-31T06:28:51.730Z,11.50
2017-12-31T06:31:19.182Z,11.50
2017-12-31T06:33:46.638Z,11.50
2017-12-31T06:36:14.111Z,11.50
2017-12-31T06:38:41.561Z,11.50
2017-12-31T06:41:09.019Z,11.50
2017-12-31T06:43:36.489Z,11.50
2017-12-31T06:46:04.715Z,11.40
2017-12-31T06:48:32.265Z,11.40
2017-12-31T06:50:59.726Z,11.40
2017-12-31T06:53:27.186Z,11.40
2017-12-31T06:55:54.654Z,11.40
2017-12-31T06:58:22.118Z,11.40
2017-12-31T07:00:49.579Z,11.40
2017-12-31T07:03:17.052Z,11.40
2017-12-31T07:05:44.506Z,11.40
2017-12-31T07:08:11.968Z,11.40
2017-12-31T07:10:39.431Z,11.40
2017-12-31T07:13:06.887Z,11.40
2017-12-31T07:15:34.346Z,11.40
2017-12-31T07:18:01.806Z,11.40
2017-12-31T07:20:30.030Z,11.30
2017-12-31T07:22:57.481Z,11.30
2017-12-31T07:25:24.955Z,11.30
2017-12-31T07:27:52.492Z,11.30
2017-12-31T07:30:19.990Z,11.30
2017-12-31T07:32:47.460Z,11.30
2017-12-31T07:35:14.914Z,11.30
2017-12-31T07:37:42.485Z,11.30
2017-12-31T07:40:10.715Z,11.30
2017-12-31T07:42:38.217Z,11.30
2017-12-31T07:45:06.442Z,11.30
2017-12-31T07:47:33.929Z,11.30
2017-12-31T07:50:01.407Z,11.20
2017-12-31T07:52:29.630Z,11.30
2017-12-31T07:54:57.094Z,11.30
2017-12-31T07:57:24.561Z,11.30
2017-12-31T07:59:52.020Z,11.30
2017-12-31T08:02:19.500Z,11.30
2017-12-31T08:04:46.979Z,11.30
2017-12-31T08:07:14.415Z,11.30
2017-12-31T08:09:41.885Z,11.40
2017-12-31T08:12:10.126Z,11.40
2017-12-31T08:14:37.583Z,11.30
2017-12-31T08:17:05.053Z,11.40
2017-12-31T08:19:32.519Z,11.40
2017-12-31T08:21:59.982Z,11.40
2017-12-31T08:24:28.225Z,11.40
2017-12-31T08:26:55.677Z,11.40
2017-12-31T08:29:23.151Z,11.50
2017-12-31T08:31:50.609Z,11.50
2017-12-31T08:34:18.065Z,11.50
2017-12-31T08:36:45.529Z,11.60
2017-12-31T08:39:12.985Z,11.60
2017-12-31T08:41:40.442Z,11.60
2017-12-31T08:44:07.911Z,11.60
2017-12-31T08:46:36.135Z,11.70
2017-12-31T08:49:03.612Z,11.70
2017-12-31T08:51:31.075Z,11.70
2017-12-31T08:53:58.535Z,11.80
2017-12-31T08:56:25.991Z,11.80
2017-12-31T08:58:53.478Z,11.80
2017-12-31T09:01:21.702Z,11.80
2017-12-31T09:03:49.178Z,11.80
2017-12-31T09:06:16.670Z,11.90
2017-12-31T09:08:44.121Z,11.90
2017-12-31T09:11:12.348Z,11.90
2017-12-31T09:13:39.818Z,11.90
2017-12-31T09:16:07.287Z,12.00
2017-12-31T09:18:34.746Z,12.00
2017-12-31T09:21:02.215Z,12.00
2017-12-31T09:23:30.442Z,12.10
2017-12-31T09:25:57.899Z,12.10
2017-12-31T09:28:25.366Z,12.10
2017-12-31T09:30:52.825Z,12.10
2017-12-31T09:33:20.287Z,12.10
2017-12-31T09:35:47.766Z,12.20
2017-12-31T09:38:15.995Z,12.20
2017-12-31T09:40:43.445Z,12.20
2017-12-31T09:43:10.927Z,12.30
2017-12-31T09:45:38.406Z,12.40
2017-12-31T09:48:05.867Z,12.50
2017-12-31T09:50:33.335Z,12.50
2017-12-31T09:53:01.559Z,12.50
2017-12-31T09:55:29.049Z,12.50
2017-12-31T09:57:56.515Z,12.60
2017-12-31T10:00:23.979Z,12.60
2017-12-31T10:02:52.206Z,12.70
2017-12-31T10:05:19.666Z,12.70
2017-12-31T10:07:47.139Z,12.80
2017-12-31T10:10:14.596Z,12.80
2017-12-31T10:12:42.051Z,12.80
2017-12-31T10:15:09.522Z,12.90
2017-12-31T10:17:36.988Z,12.90
2017-12-31T10:20:04.426Z,13.00
2017-12-31T10:22:31.899Z,13.00
2017-12-31T10:24:59.363Z,13.10
2017-12-31T10:27:27.583Z,13.20
2017-12-31T10:29:55.054Z,13.20
2017-12-31T10:32:22.506Z,13.20
2017-12-31T10:34:49.970Z,13.20
2017-12-31T10:37:18.230Z,13.20
2017-12-31T10:39:45.687Z,13.20
2017-12-31T10:42:13.161Z,13.20
2017-12-31T10:44:40.634Z,13.20
2017-12-31T10:47:08.099Z,13.30
2017-12-31T10:49:35.584Z,13.30
2017-12-31T10:52:03.047Z,13.30
2017-12-31T10:54:30.503Z,13.30
2017-12-31T10:56:57.980Z,13.30
2017-12-31T10:59:25.444Z,13.30
2017-12-31T11:01:52.890Z,13.40
2017-12-31T11:04:20.374Z,13.40
2017-12-31T11:06:47.831Z,13.40
2017-12-31T11:09:16.055Z,13.40
2017-12-31T11:11:43.535Z,13.40
2017-12-31T11:14:10.976Z,13.40
2017-12-31T11:16:38.439Z,13.40
2017-12-31T11:19:05.901Z,13.40
2017-12-31T11:21:33.358Z,13.50
2017-12-31T11:24:00.818Z,13.40
2017-12-31T11:26:28.292Z,13.40
2017-12-31T11:28:55.763Z,13.40
2017-12-31T11:31:23.218Z,13.20
2017-12-31T11:33:50.687Z,13.00
2017-12-31T11:36:18.137Z,13.00
2017-12-31T11:38:45.599Z,12.90
2017-12-31T11:41:13.067Z,12.70
2017-12-31T11:43:40.521Z,12.60
2017-12-31T11:46:07.978Z,12.50
2017-12-31T11:48:35.500Z,12.50
2017-12-31T11:51:02.967Z,12.40
2017-12-31T11:53:30.426Z,12.40
2017-12-31T11:55:57.890Z,12.30
2017-12-31T11:58:25.354Z,12.30
2017-12-31T12:00:52.827Z,12.30
2017-12-31T12:03:21.042Z,12.20
2017-12-31T12:05:48.506Z,12.10
2017-12-31T12:08:15.962Z,12.20
2017-12-31T12:10:43.409Z,12.10
2017-12-31T12:13:10.874Z,12.10
2017-12-31T12:15:38.425Z,12.10
2017-12-31T12:18:05.865Z,12.00
2017-12-31T12:20:33.342Z,12.00
2017-12-31T12:23:00.801Z,11.90
2017-12-31T12:25:28.254Z,11.90
2017-12-31T12:27:55.726Z,11.90
2017-12-31T12:30:23.219Z,11.80
2017-12-31T12:32:50.674Z,11.80
2017-12-31T12:35:18.918Z,11.80
2017-12-31T12:37:46.378Z,11.80
2017-12-31T12:40:13.833Z,11.80
2017-12-31T12:42:41.306Z,11.80
2017-12-31T12:45:08.761Z,11.80
2017-12-31T12:47:36.223Z,11.80
2017-12-31T12:50:03.700Z,11.80
2017-12-31T12:52:31.146Z,11.80
2017-12-31T12:54:58.611Z,11.80
2017-12-31T12:57:26.849Z,11.80
2017-12-31T12:59:54.305Z,11.70
2017-12-31T13:02:21.773Z,11.80
2017-12-31T13:04:49.253Z,11.70
2017-12-31T13:07:16.708Z,11.70
2017-12-31T13:09:44.158Z,11.70
2017-12-31T13:12:11.631Z,11.70
2017-12-31T13:14:39.856Z,11.70
2017-12-31T13:17:07.314Z,11.70
2017-12-31T13:19:34.773Z,11.70
2017-12-31T13:22:02.225Z,11.70
2017-12-31T13:24:29.685Z,11.70
2017-12-31T13:26:57.146Z,11.80
2017-12-31T13:29:24.606Z,11.80
2017-12-31T13:31:52.079Z,11.80
2017-12-31T13:34:19.534Z,11.80
2017-12-31T13:36:46.999Z,11.80
2017-12-31T13:39:14.458Z,11.80
2017-12-31T13:41:41.910Z,11.80
2017-12-31T13:44:09.377Z,11.80
2017-12-31T13:46:36.838Z,11.80
2017-12-31T13:49:05.059Z,11.80
2017-12-31T13:51:32.515Z,11.80
2017-12-31T13:53:59.970Z,11.80
2017-12-31T13:56:27.425Z,11.80
2017-12-31T13:58:54.886Z,11.80
2017-12-31T14:01:22.343Z,11.80
2017-12-31T14:03:49.798Z,11.80
2017-12-31T14:06:17.305Z,11.80
2017-12-31T14:08:45.526Z,11.80
2017-12-31T14:11:12.990Z,11.80
2017-12-31T14:13:40.449Z,11.80
2017-12-31T14:16:07.911Z,11.80
2017-12-31T14:18:35.373Z,11.80
2017-12-31T14:21:02.838Z,11.80
2017-12-31T14:23:30.286Z,11.70
2017-12-31T14:25:57.753Z,11.70
2017-12-31T14:28:25.207Z,11.70
2017-12-31T14:30:52.663Z,11.70
2017-12-31T14:33:20.142Z,11.70
2017-12-31T14:35:47.585Z,11.70
2017-12-31T14:38:15.047Z,11.60
2017-12-31T14:40:42.506Z,11.60
2017-12-31T14:43:09.966Z,11.50
2017-12-31T14:45:37.426Z,11.40
2017-12-31T14:48:04.894Z,11.30
2017-12-31T14:50:33.115Z,11.10
2017-12-31T14:53:00.586Z,11.10
2017-12-31T14:55:28.087Z,10.90
2017-12-31T14:57:56.322Z,10.60
2017-12-31T15:00:23.786Z,10.60
2017-12-31T15:02:51.245Z,10.40
2017-12-31T15:05:18.702Z,10.30
2017-12-31T15:07:46.165Z,10.20
2017-12-31T15:10:13.632Z,10.10
2017-12-31T15:12:41.079Z,10.00
2017-12-31T15:15:08.534Z,10.00
2017-12-31T15:17:36.004Z,10.00
2017-12-31T15:20:03.450Z,9.90
2017-12-31T15:22:30.898Z,9.90
2017-12-31T15:24:58.362Z,9.80
2017-12-31T15:27:25.810Z,9.80
2017-12-31T15:29:53.273Z,9.80
2017-12-31T15:32:20.717Z,9.70
2017-12-31T15:34:48.166Z,9.80
2017-12-31T15:37:15.625Z,9.80
2017-12-31T15:39:43.080Z,9.80
2017-12-31T15:42:10.535Z,9.80
2017-12-31T15:44:37.998Z,9.70
2017-12-31T15:47:05.466Z,9.70
2017-12-31T15:49:32.915Z,9.70
2017-12-31T15:52:00.394Z,9.70
2017-12-31T15:54:27.841Z,9.70
2017-12-31T15:56:55.292Z,9.70
2017-12-31T15:59:22.756Z,9.60
2017-12-31T16:01:50.206Z,9.60
2017-12-31T16:04:17.649Z,9.60
2017-12-31T16:06:45.224Z,9.60
2017-12-31T16:09:12.675Z,9.60
2017-12-31T16:11:40.186Z,9.60
2017-12-31T16:14:07.651Z,9.60
2017-12-31T16:16:35.111Z,9.50
2017-12-31T16:19:02.566Z,9.50
2017-12-31T16:21:30.043Z,9.50
2017-12-31T16:23:57.503Z,9.50
2017-12-31T16:26:24.986Z,9.50
2017-12-31T16:28:52.453Z,9.50
2017-12-31T16:31:20.731Z,9.50
2017-12-31T16:33:48.986Z,9.40
2017-12-31T16:36:16.446Z,9.50
2017-12-31T16:38:43.901Z,9.40
2017-12-31T16:41:11.361Z,9.40
2017-12-31T16:43:38.822Z,9.40
2017-12-31T16:46:06.278Z,9.50
2017-12-31T16:48:33.742Z,9.50
2017-12-31T16:51:01.958Z,9.50
2017-12-31T16:53:29.420Z,9.50
2017-12-31T16:55:56.871Z,9.50
2017-12-31T16:58:24.320Z,9.50
2017-12-31T17:00:51.791Z,9.60
2017-12-31T17:03:19.244Z,9.50
2017-12-31T17:05:46.693Z,9.60
2017-12-31T17:08:14.170Z,9.60
2017-12-31T17:10:41.629Z,9.60
2017-12-31T17:13:09.095Z,9.70
2017-12-31T17:15:36.566Z,9.60
2017-12-31T17:18:04.021Z,9.70
2017-12-31T17:20:31.486Z,9.70
2017-12-31T17:22:58.955Z,9.70
2017-12-31T17:25:27.178Z,9.70
2017-12-31T17:27:54.649Z,9.70
2017-12-31T17:30:22.098Z,9.70
2017-12-31T17:32:49.563Z,9.70
2017-12-31T17:35:17.030Z,9.80
2017-12-31T17:37:44.489Z,9.80
2017-12-31T17:40:11.942Z,9.80
2017-12-31T17:42:39.417Z,9.80
2017-12-31T17:45:06.876Z,9.90
2017-12-31T17:47:34.335Z,9.80
2017-12-31T17:50:02.570Z,9.90
2017-12-31T17:52:30.023Z,9.80
2017-12-31T17:54:57.461Z,9.80
2017-12-31T17:57:24.934Z,9.80
2017-12-31T17:59:52.382Z,9.80
2017-12-31T18:02:19.838Z,9.80
2017-12-31T18:04:47.302Z,9.80
2017-12-31T18:07:14.750Z,9.70
2017-12-31T18:09:42.240Z,9.70
2017-12-31T18:12:09.679Z,9.70
2017-12-31T18:14:37.903Z,9.70
2017-12-31T18:17:06.110Z,9.60
2017-12-31T18:19:33.566Z,9.60
2017-12-31T18:22:01.023Z,9.60
2017-12-31T18:24:28.482Z,9.60
2017-12-31T18:26:55.937Z,9.60
2017-12-31T18:29:23.393Z,9.60
2017-12-31T18:31:50.850Z,9.50
2017-12-31T18:34:18.315Z,9.50
2017-12-31T18:36:45.777Z,9.50
2017-12-31T18:39:13.231Z,9.60
2017-12-31T18:41:40.738Z,9.50
2017-12-31T18:44:08.951Z,9.40
2017-12-31T18:46:36.410Z,9.40
2017-12-31T18:49:03.854Z,9.50
2017-12-31T18:51:31.312Z,9.50
2017-12-31T18:53:58.776Z,9.50
2017-12-31T18:56:26.222Z,9.50
2017-12-31T18:58:53.682Z,9.50
2017-12-31T19:01:21.134Z,9.50
2017-12-31T19:03:48.587Z,9.50
2017-12-31T19:06:16.052Z,9.60
2017-12-31T19:08:43.513Z,9.60
2017-12-31T19:11:10.975Z,9.60
2017-12-31T19:13:38.434Z,9.60
2017-12-31T19:16:05.897Z,9.60
2017-12-31T19:18:33.351Z,9.60
2017-12-31T19:21:00.814Z,9.60
2017-12-31T19:23:28.274Z,9.70
2017-12-31T19:25:55.743Z,9.70
2017-12-31T19:28:23.209Z,9.80
2017-12-31T19:30:50.675Z,9.80
2017-12-31T19:33:18.226Z,9.90
2017-12-31T19:35:45.693Z,9.90
2017-12-31T19:38:13.157Z,9.90
2017-12-31T19:40:41.378Z,9.90
2017-12-31T19:43:08.875Z,9.90
2017-12-31T19:45:36.334Z,9.90
2017-12-31T19:48:03.790Z,9.90
2017-12-31T19:50:31.348Z,9.90
2017-12-31T19:52:58.797Z,9.90
2017-12-31T19:55:26.257Z,10.00
2017-12-31T19:57:53.723Z,9.90
2017-12-31T20:00:21.219Z,9.90
2017-12-31T20:02:48.638Z,9.90
2017-12-31T20:05:16.185Z,9.90
2017-12-31T20:07:43.646Z,9.80
2017-12-31T20:10:11.197Z,9.80
2017-12-31T20:12:38.816Z,9.80
2017-12-31T20:15:06.318Z,9.80
2017-12-31T20:17:33.804Z,9.80
2017-12-31T20:20:02.035Z,9.70
2017-12-31T20:22:29.489Z,9.70
2017-12-31T20:24:56.966Z,9.70
2017-12-31T20:27:24.431Z,9.70
2017-12-31T20:29:51.888Z,9.70
2017-12-31T20:32:19.342Z,9.70
2017-12-31T20:34:46.895Z,9.70
2017-12-31T20:37:14.383Z,9.70
2017-12-31T20:39:42.624Z,9.70
2017-12-31T20:42:10.083Z,9.70
2017-12-31T20:44:37.538Z,9.70
2017-12-31T20:47:05.007Z,9.70
2017-12-31T20:49:32.459Z,9.70
2017-12-31T20:52:00.018Z,9.70
2017-12-31T20:54:27.487Z,9.70
2017-12-31T20:56:55.713Z,9.80
2017-12-31T20:59:23.163Z,9.70
2017-12-31T21:01:50.633Z,9.80
2017-12-31T21:04:18.078Z,9.70
2017-12-31T21:06:45.539Z,9.70
2017-12-31T21:09:13.010Z,9.70
2017-12-31T21:11:40.465Z,9.70
2017-12-31T21:14:07.931Z,9.70
2017-12-31T21:16:35.397Z,9.60
2017-12-31T21:19:02.846Z,9.60
2017-12-31T21:21:30.314Z,9.50
2017-12-31T21:23:57.771Z,9.60
2017-12-31T21:26:25.222Z,9.50
2017-12-31T21:28:52.686Z,9.50
2017-12-31T21:31:20.143Z,9.50
2017-12-31T21:33:47.586Z,9.50
2017-12-31T21:36:15.055Z,9.50
2017-12-31T21:38:42.511Z,9.50
2017-12-31T21:41:09.970Z,9.50
2017-12-31T21:43:37.439Z,9.50
2017-12-31T21:46:05.655Z,9.50
2017-12-31T21:48:33.142Z,9.50
2017-12-31T21:51:00.602Z,9.50
2017-12-31T21:53:28.050Z,9.50
2017-12-31T21:55:55.514Z,9.40
2017-12-31T21:58:22.979Z,9.40
2017-12-31T22:00:50.430Z,9.40
2017-12-31T22:03:17.905Z,9.30
2017-12-31T22:05:45.350Z,9.30
2017-12-31T22:08:12.815Z,9.20
2017-12-31T22:10:40.275Z,9.20
2017-12-31T22:13:08.489Z,9.10
2017-12-31T22:15:35.954Z,9.10
2017-12-31T22:18:03.411Z,9.00
2017-12-31T22:20:30.863Z,9.00
2017-12-31T22:22:58.330Z,9.00
2017-12-31T22:25:25.801Z,8.90
2017-12-31T22:27:53.254Z,8.90
2017-12-31T22:30:20.718Z,8.90
2017-12-31T22:32:48.174Z,8.90
2017-12-31T22:35:15.636Z,8.80
2017-12-31T22:37:43.098Z,8.80
2017-12-31T22:40:10.558Z,8.80
2017-12-31T22:42:38.013Z,8.80
2017-12-31T22:45:05.493Z,8.80
2017-12-31T22:47:33.706Z,8.70
2017-12-31T22:50:01.162Z,8.70
2017-12-31T22:52:28.639Z,8.70
2017-12-31T22:54:56.102Z,8.60
2017-12-31T22:57:23.555Z,8.60
2017-12-31T22:59:51.010Z,8.60
2017-12-31T23:02:18.478Z,8.70
2017-12-31T23:04:45.922Z,8.60
2017-12-31T23:07:13.378Z,8.70
2017-12-31T23:09:40.847Z,8.60
2017-12-31T23:12:08.306Z,8.60
2017-12-31T23:14:35.785Z,8.60
2017-12-31T23:17:03.247Z,8.60
2017-12-31T23:19:31.468Z,8.60
2017-12-31T23:21:58.918Z,8.60
2017-12-31T23:24:26.401Z,8.70
2017-12-31T23:26:53.920Z,8.60
2017-12-31T23:29:22.119Z,8.70
2017-12-31T23:31:49.592Z,8.70
2017-12-31T23:34:17.049Z,8.70
2017-12-31T23:36:44.514Z,8.80
2017-12-31T23:39:11.983Z,8.80
2017-12-31T23:41:39.435Z,8.80
2017-12-31T23:44:06.903Z,8.70
2017-12-31T23:46:35.144Z,8.70
2017-12-31T23:49:02.594Z,8.70
2017-12-31T23:51:30.062Z,8.80
2017-12-31T23:53:57.525Z,8.80
2017-12-31T23:56:24.986Z,8.80
2017-12-31T23:58:52.459Z,8.80
